Record high temperature 42.2°C Record low temperature -14.6°C Record high gust 76.2 km/h Record high average 96.8 km/h Record daily rain 63.7 mm Record low windchill -17.5°C Record high barometer 1046.0 hPa Record low barometer 960.0 hPa
Daily high pressure 1010.0 hPa Daily low pressure 1009.0 hPa Daily low windchill 11.1°C Daily high heat index 13.7°C Daily high gust speed 7.6 kmh S Daily high average speed 4.6 kmh S

This page is updated from recent data collected by a WMR200 weather station Use the Reload or Refresh facility on your browser to retrieve the latest data.

Status report of weather station: Bienvenue sur la Station Météo de Godarville



Weather report/warning/Metars

Alexandroupoli Airport , Greece (LGAL) 40-51N 025-55E 3M
Jun 24, 2021 - 02:50 PM EDT / 2021.06.24 1850 UTC
Wind: Variable at 3 MPH (3 KT):0
Visibility: greater than 7 mile(s):0
Temperature: 80 F (27 C)
Dew Point: 66 F (19 C)
Relative Humidity: 61%
Pressure (altimeter): 29.94 in. Hg (1014 hPa)
ob: LGAL 241850Z VRB03KT CAVOK 27/19 Q1014
cycle: 19

Charleroi / Gosselies, Belgium (EBCI) 50-28N 004-27E 192M
Jun 24, 2021 - 07:20 PM EDT / 2021.06.24 2320 UTC
Wind: from the WSW (240 degrees) at 6 MPH (5 KT):0
Visibility: 3 mile(s):0
Temperature: 55 F (13 C)
Dew Point: 53 F (12 C)
Relative Humidity: 93%
Pressure (altimeter): 30.15 in. Hg (1021 hPa)
ob: EBCI 242320Z 24005KT 6000 NSC 13/12 Q1021 NOSIG
cycle: 23

Bruxelles National, Belgium (EBBR) 50-54N 004-32E 58M
Jun 24, 2021 - 07:20 PM EDT / 2021.06.24 2320 UTC
Wind: from the WSW (250 degrees) at 3 MPH (3 KT):0
Visibility: greater than 7 mile(s):0
Temperature: 53 F (12 C)
Dew Point: 51 F (11 C)
Relative Humidity: 93%
Pressure (altimeter): 30.12 in. Hg (1020 hPa)
ob: EBBR 242320Z 25003KT CAVOK 12/11 Q1020 TEMPO BKN014
cycle: 23

Koksijde, Belgium (EBFN) 51-05N 002-39E 9M
Jun 24, 2021 - 07:25 PM EDT / 2021.06.24 2325 UTC
Wind: from the SW (230 degrees) at 6 MPH (5 KT):0
Visibility: greater than 7 mile(s):0
Sky conditions: mostly cloudy
Temperature: 57 F (14 C)
Dew Point: 51 F (11 C)
Relative Humidity: 82%
Pressure (altimeter): 30.09 in. Hg (1019 hPa)
ob: EBFN 242325Z 23005KT 9999 SCT035 BKN040 14/11 Q1019 BLU BLU
cycle: 23

Poznan, Poland (EPPO) 52-25N 016-50E 92M
Jun 24, 2021 - 07:30 PM EDT / 2021.06.24 2330 UTC
Wind: from the NNW (340 degrees) at 3 MPH (3 KT) (direction variable):0
Visibility: greater than 7 mile(s):0
Sky conditions: mostly cloudy
Temperature: 59 F (15 C)
Dew Point: 57 F (14 C)
Relative Humidity: 93%
Pressure (altimeter): 30.00 in. Hg (1016 hPa)
ob: EPPO 242330Z 34003KT 310V020 9999 BKN012 15/14 Q1016 
cycle: 23



Coucher du Soleil:
21:58:45

Lever de Lune:
22:12:59 24/06/21

Coucher de Lune:
04:41:25 24/06/21

Premier Quartier 18 juin 2021
Pleine Lune 24 juin 2021
Dernier Quartier 1 juillet 2021
Nouvelle Lune 10 juillet 2021
Âge de lune : 14 jours,22 heures,18 minutes,100%
Les heures du jour possible étaient aujourd’hui 16:27



The data is logged at two minute intervals, but there is data recorded every minute.

Use the RELOAD facility on your browser to retrieve the latest data.

Click here for a daily update of the averages/extremes to date for the month
Created by "Weather Display" software version 10.37P at this start time/date 09:51:20 22/06/2021